Time;durP1;ratioP1;P1;durP2;ratioP2;P2;SDS_P1;SDS_P2;PMS_P1;PMS_P2;Temp;Humidity;BMP_temperature;BMP_pressure;BME280_temperature;BME280_humidity;BME280_pressure;Samples;Min_cycle;Max_cycle;Signal;HPM_P1;HPM_P2
2021/04/05 00:00:34;;;;;;;17.02;9.40;;;5.90;99.90;;;;;;5029688;28;20184;-62
2021/04/05 00:03:00;;;;;;;13.80;9.30;;;5.90;99.90;;;;;;5014195;28;20196;-62
2021/04/05 00:05:28;;;;;;;19.20;10.80;;;6.00;99.90;;;;;;5013869;28;20199;-61
2021/04/05 00:07:54;;;;;;;18.02;10.27;;;6.00;99.90;;;;;;5014118;28;20244;-61
2021/04/05 00:10:31;;;;;;;18.37;9.93;;;6.00;99.90;;;;;;5012938;28;20217;-61
2021/04/05 00:13:00;;;;;;;18.23;9.88;;;6.00;99.90;;;;;;5014367;28;20427;-61
2021/04/05 00:15:26;;;;;;;16.17;8.88;;;6.10;99.90;;;;;;5013031;28;20220;-61
2021/04/05 00:17:52;;;;;;;21.23;11.00;;;6.10;99.90;;;;;;5013890;28;20189;-61
2021/04/05 00:20:25;;;;;;;14.33;9.37;;;6.10;99.90;;;;;;5014055;28;20776;-61
2021/04/05 00:22:50;;;;;;;15.98;9.77;;;6.10;99.90;;;;;;5014133;28;20192;-62
2021/04/05 00:25:16;;;;;;;19.60;10.90;;;6.20;99.90;;;;;;5013617;28;20248;-62
2021/04/05 00:27:42;;;;;;;16.47;10.57;;;6.20;99.90;;;;;;5013825;28;20192;-62
2021/04/05 00:30:17;;;;;;;18.40;11.03;;;6.20;77.80;;;;;;5013664;28;20715;-62
2021/04/05 00:32:47;;;;;;;22.10;11.10;;;6.30;4.00;;;;;;5013839;28;20994;-61
2021/04/05 00:35:14;;;;;;;24.10;12.20;;;6.30;1.00;;;;;;5013450;28;20177;-60
2021/04/05 00:37:41;;;;;;;25.92;11.45;;;6.30;17.60;;;;;;5013481;28;20196;-60
2021/04/05 00:40:12;;;;;;;17.75;10.60;;;6.20;34.80;;;;;;5013686;28;20414;-60
2021/04/05 00:42:40;;;;;;;17.15;12.35;;;6.20;99.90;;;;;;5013465;28;20188;-60
2021/04/05 00:45:09;;;;;;;21.20;12.15;;;6.20;67.90;;;;;;5013667;28;20276;-60
2021/04/05 00:47:40;;;;;;;19.27;12.40;;;6.20;61.50;;;;;;5013453;28;20528;-60
2021/04/05 00:50:19;;;;;;;19.05;11.25;;;6.20;52.60;;;;;;5012399;28;20646;-60
2021/04/05 00:52:50;;;;;;;25.40;13.45;;;6.20;6.60;;;;;;5013477;28;20196;-61
2021/04/05 00:55:16;;;;;;;24.20;10.38;;;6.20;95.60;;;;;;5013265;28;20644;-62
2021/04/05 00:57:42;;;;;;;17.45;12.40;;;6.20;67.80;;;;;;5012371;28;20215;-62
2021/04/05 01:00:14;;;;;;;19.90;13.68;;;6.20;88.00;;;;;;5013644;28;20243;-62
2021/04/05 01:02:40;;;;;;;15.77;11.07;;;6.20;79.10;;;;;;5012452;28;20200;-62
2021/04/05 01:05:06;;;;;;;21.73;13.52;;;6.20;88.10;;;;;;5013202;28;20526;-62
2021/04/05 01:07:32;;;;;;;19.63;10.73;;;6.20;88.40;;;;;;5013354;28;20182;-62
2021/04/05 01:09:58;;;;;;;16.67;10.50;;;6.10;99.90;;;;;;5013289;28;20212;-62
2021/04/05 01:12:23;;;;;;;18.03;13.27;;;6.20;99.90;;;;;;5013380;28;20632;-62
2021/04/05 01:14:49;;;;;;;18.60;12.30;;;6.20;99.90;;;;;;5013269;28;20441;-62
2021/04/05 01:17:14;;;;;;;21.20;12.20;;;6.10;99.90;;;;;;5013398;28;20182;-61
2021/04/05 01:19:40;;;;;;;15.80;9.37;;;6.10;99.90;;;;;;5013424;28;20679;-61
2021/04/05 01:22:06;;;;;;;19.80;11.63;;;6.10;99.90;;;;;;5013288;28;20217;-61
2021/04/05 01:24:32;;;;;;;18.60;12.27;;;6.10;99.90;;;;;;5013228;28;20244;-62
2021/04/05 01:26:58;;;;;;;16.43;10.43;;;6.20;99.90;;;;;;5016043;28;20223;-59
2021/04/05 01:29:23;;;;;;;20.73;12.77;;;6.20;99.90;;;;;;5017084;28;20211;-60
2021/04/05 01:31:49;;;;;;;17.07;10.40;;;6.30;99.90;;;;;;5017030;28;20176;-59
2021/04/05 01:34:15;;;;;;;19.73;10.23;;;6.40;45.30;;;;;;5016725;28;20207;-60
2021/04/05 01:36:40;;;;;;;20.43;12.70;;;6.40;51.80;;;;;;5016783;28;20176;-62
2021/04/05 01:39:06;;;;;;;20.10;12.40;;;6.40;8.80;;;;;;5016749;28;20524;-62
2021/04/05 01:41:32;;;;;;;22.97;12.50;;;6.50;1.00;;;;;;5016908;28;20174;-62
2021/04/05 01:43:59;;;;;;;20.10;11.32;;;6.40;1.00;;;;;;5016431;28;20645;-62
2021/04/05 01:46:27;;;;;;;22.80;11.52;;;6.30;23.90;;;;;;5015846;28;20529;-62
2021/04/05 01:48:53;;;;;;;18.95;10.30;;;6.40;20.60;;;;;;5016554;28;20183;-62
2021/04/05 01:51:20;;;;;;;17.47;12.30;;;6.40;26.50;;;;;;5016522;28;20185;-59
2021/04/05 01:53:48;;;;;;;21.98;13.18;;;6.40;51.40;;;;;;5016234;28;20177;-60
2021/04/05 01:56:15;;;;;;;22.30;11.80;;;6.40;72.30;;;;;;5016423;28;20240;-60
2021/04/05 01:58:43;;;;;;;19.33;10.95;;;6.40;99.90;;;;;;5016588;28;20185;-60
2021/04/05 02:01:11;;;;;;;17.85;10.95;;;6.40;99.90;;;;;;5016305;28;20180;-60
2021/04/05 02:03:38;;;;;;;22.15;11.63;;;6.50;99.90;;;;;;5015962;28;20211;-60
2021/04/05 02:06:09;;;;;;;23.48;11.95;;;6.50;99.90;;;;;;5016223;28;20194;-59
2021/04/05 02:08:37;;;;;;;19.88;11.60;;;6.50;99.90;;;;;;5015696;28;20199;-59
2021/04/05 02:11:09;;;;;;;19.80;12.45;;;6.50;99.90;;;;;;5016375;28;20221;-59
2021/04/05 02:13:35;;;;;;;18.67;11.35;;;6.50;99.90;;;;;;5016109;28;20189;-60
2021/04/05 02:16:01;;;;;;;23.40;12.93;;;6.60;99.90;;;;;;5016249;28;20186;-59
2021/04/05 02:18:27;;;;;;;16.95;11.93;;;6.60;99.90;;;;;;5016107;28;20178;-59
2021/04/05 02:20:53;;;;;;;19.37;9.80;;;6.60;99.90;;;;;;5015835;28;20523;-59
2021/04/05 02:23:19;;;;;;;23.88;11.85;;;6.50;99.90;;;;;;5015619;28;20177;-59
2021/04/05 02:26:10;;;;;;;20.02;10.80;;;6.60;99.90;;;;;;5014838;28;20610;-60
2021/04/05 02:28:46;;;;;;;16.38;9.93;;;6.60;99.90;;;;;;5015805;28;20624;-60
2021/04/05 02:31:21;;;;;;;19.00;9.25;;;6.70;99.90;;;;;;5015702;28;20188;-60
2021/04/05 02:33:50;;;;;;;21.35;12.57;;;6.70;99.90;;;;;;5015478;28;20181;-61
2021/04/05 02:36:19;;;;;;;16.00;11.75;;;6.60;99.90;;;;;;5015634;28;20184;-61
2021/04/05 02:38:47;;;;;;;19.90;10.60;;;6.70;99.90;;;;;;5014894;28;20284;-62
2021/04/05 02:41:15;;;;;;;18.10;9.43;;;6.70;99.90;;;;;;5015559;28;20212;-62
2021/04/05 02:43:41;;;;;;;21.30;10.95;;;6.70;99.90;;;;;;5015228;28;20533;-62
2021/04/05 02:46:15;;;;;;;13.48;9.85;;;6.70;99.90;;;;;;5015417;28;20536;-62
2021/04/05 02:48:46;;;;;;;16.42;10.50;;;6.70;99.90;;;;;;5015477;28;20192;-62
2021/04/05 02:51:12;;;;;;;18.42;10.15;;;6.80;99.90;;;;;;5015470;28;20197;-62
2021/04/05 02:53:43;;;;;;;19.17;11.23;;;6.80;99.90;;;;;;5015160;28;20181;-62
2021/04/05 02:56:10;;;;;;;16.88;10.27;;;6.80;99.90;;;;;;5014307;28;20424;-62
2021/04/05 02:58:40;;;;;;;19.85;11.25;;;6.80;1.00;;;;;;5015290;28;20251;-62
2021/04/05 03:01:07;;;;;;;17.08;9.95;;;6.80;1.00;;;;;;5015228;28;20212;-62
2021/04/05 03:03:34;;;;;;;17.90;10.85;;;6.80;1.00;;;;;;5014855;28;20186;-62
2021/04/05 03:06:00;;;;;;;19.33;10.30;;;6.80;1.00;;;;;;5015016;28;20610;-62
2021/04/05 03:08:26;;;;;;;17.52;11.57;;;6.80;1.00;;;;;;5015065;28;20196;-62
2021/04/05 03:10:52;;;;;;;18.83;10.77;;;6.80;1.00;;;;;;5014991;28;20271;-62
2021/04/05 03:13:18;;;;;;;21.27;10.70;;;6.80;1.00;;;;;;5014678;28;20186;-62
2021/04/05 03:15:44;;;;;;;19.10;10.65;;;6.80;1.00;;;;;;5013933;28;20179;-63
2021/04/05 03:18:11;;;;;;;17.57;8.67;;;6.90;1.00;;;;;;5030329;28;20177;-63
2021/04/05 03:20:38;;;;;;;19.60;11.00;;;6.80;1.00;;;;;;5030307;28;20441;-63
2021/04/05 03:23:04;;;;;;;16.02;10.10;;;6.80;1.00;;;;;;5014862;28;20280;-60
2021/04/05 03:25:31;;;;;;;15.15;11.90;;;6.90;1.00;;;;;;5014659;28;20190;-61
2021/04/05 03:27:57;;;;;;;19.77;11.30;;;6.80;1.00;;;;;;5014693;28;20190;-61
2021/04/05 03:30:42;;;;;;;17.20;11.18;;;6.70;1.00;;;;;;5014662;28;20225;-63
2021/04/05 03:33:16;;;;;;;21.48;11.48;;;6.60;24.90;;;;;;5014299;28;20187;-62
2021/04/05 03:35:45;;;;;;;17.75;10.75;;;6.40;99.90;;;;;;5014667;28;20538;-63
2021/04/05 03:38:11;;;;;;;17.50;11.45;;;6.40;99.90;;;;;;5014441;28;20519;-63
2021/04/05 03:40:40;;;;;;;17.45;10.63;;;6.40;99.90;;;;;;5014531;28;20189;-63
2021/04/05 03:43:24;;;;;;;17.83;11.25;;;6.40;99.90;;;;;;5014376;28;20186;-63
2021/04/05 03:45:54;;;;;;;18.60;11.80;;;6.30;99.90;;;;;;5014423;28;20637;-63
2021/04/05 03:48:28;;;;;;;21.98;11.32;;;6.30;99.90;;;;;;5014290;28;20192;-63
2021/04/05 03:51:08;;;;;;;20.55;12.60;;;6.30;99.90;;;;;;5012687;28;20227;-63
2021/04/05 03:53:48;;;;;;;15.95;9.95;;;6.30;99.90;;;;;;5014433;28;20657;-61
2021/04/05 03:56:17;;;;;;;14.63;10.77;;;6.20;99.90;;;;;;5014702;28;20187;-61
2021/04/05 03:58:46;;;;;;;23.60;14.00;;;6.20;99.90;;;;;;5014436;28;20209;-61
2021/04/05 04:01:16;;;;;;;26.50;12.98;;;6.30;99.90;;;;;;5014191;28;20188;-61
2021/04/05 04:04:11;;;;;;;23.17;11.60;;;6.30;99.90;;;;;;5013817;28;20267;-61
2021/04/05 04:06:39;;;;;;;22.38;12.43;;;6.30;99.90;;;;;;5013702;28;20190;-61
2021/04/05 04:09:06;;;;;;;24.15;13.07;;;6.40;99.90;;;;;;5014023;28;20174;-61
2021/04/05 04:11:35;;;;;;;22.90;13.45;;;6.40;99.90;;;;;;5012940;28;20655;-61
2021/04/05 04:14:04;;;;;;;20.67;13.18;;;6.30;99.90;;;;;;5013729;28;20277;-61
2021/04/05 04:16:31;;;;;;;24.17;13.48;;;6.30;99.90;;;;;;5013891;28;20214;-63
2021/04/05 04:19:01;;;;;;;26.40;15.05;;;6.30;99.90;;;;;;5013862;28;20184;-63
2021/04/05 04:21:27;;;;;;;22.55;12.80;;;6.40;99.90;;;;;;5013806;28;20184;-61
2021/04/05 04:23:55;;;;;;;21.23;13.15;;;6.30;99.90;;;;;;5012767;28;20185;-61
2021/04/05 04:26:21;;;;;;;25.13;12.75;;;6.30;99.90;;;;;;5013895;28;20251;-63
2021/04/05 04:28:46;;;;;;;22.57;12.60;;;6.30;99.90;;;;;;5012753;28;20323;-63
2021/04/05 04:31:12;;;;;;;24.17;12.53;;;6.30;99.90;;;;;;5012666;28;20294;-63
2021/04/05 04:33:38;;;;;;;16.50;7.00;;;6.20;99.90;;;;;;5013482;28;20288;-63
2021/04/05 04:36:05;;;;;;;3.20;2.20;;;5.80;99.90;;;;;;5013793;28;20176;-63
2021/04/05 04:38:32;;;;;;;1.63;0.88;;;5.20;99.90;;;;;;5012685;28;20966;-60
2021/04/05 04:40:57;;;;;;;1.73;1.17;;;4.70;99.90;;;;;;5013674;28;20193;-62
2021/04/05 04:43:23;;;;;;;1.35;0.30;;;4.70;99.90;;;;;;5013427;28;20218;-62
2021/04/05 04:45:49;;;;;;;1.10;0.50;;;4.50;99.90;;;;;;5013598;28;20259;-63
2021/04/05 04:48:15;;;;;;;1.03;0.60;;;4.40;99.90;;;;;;5013717;28;20192;-61
2021/04/05 04:50:41;;;;;;;0.50;0.40;;;4.30;99.90;;;;;;5013573;28;20204;-61
2021/04/05 04:53:07;;;;;;;2.72;0.52;;;4.00;99.90;;;;;;5028726;28;20184;-61
2021/04/05 04:55:38;;;;;;;1.07;0.57;;;4.00;99.90;;;;;;5013651;28;20185;-63
2021/04/05 04:58:04;;;;;;;1.38;0.50;;;4.00;99.90;;;;;;5013720;28;20202;-63
2021/04/05 05:00:33;;;;;;;1.50;0.95;;;4.00;99.90;;;;;;5014257;28;20695;-62
2021/04/05 05:02:59;;;;;;;0.82;0.45;;;4.00;99.90;;;;;;5017295;28;20612;-59
2021/04/05 05:05:29;;;;;;;0.73;0.57;;;4.10;99.90;;;;;;5017245;28;20257;-62
2021/04/05 05:07:55;;;;;;;2.05;0.60;;;4.10;99.90;;;;;;5017310;28;20473;-62
2021/04/05 05:10:21;;;;;;;0.60;0.50;;;4.20;99.90;;;;;;5017191;28;20592;-62
2021/04/05 05:12:47;;;;;;;1.58;1.00;;;4.30;99.90;;;;;;5017229;28;20186;-62
2021/04/05 05:15:14;;;;;;;1.10;0.73;;;4.30;99.90;;;;;;5016955;28;20181;-62
2021/04/05 05:17:42;;;;;;;1.58;0.50;;;4.40;99.90;;;;;;5017007;28;20191;-62
2021/04/05 05:20:11;;;;;;;1.02;0.80;;;4.40;99.90;;;;;;5016899;28;20180;-62
2021/04/05 05:22:41;;;;;;;2.17;0.88;;;4.40;99.90;;;;;;5016916;28;20188;-61
2021/04/05 05:25:10;;;;;;;5.88;1.25;;;4.40;99.90;;;;;;5016710;28;20237;-61
2021/04/05 05:27:39;;;;;;;1.20;0.93;;;4.50;99.90;;;;;;5017010;28;20266;-62
2021/04/05 05:30:07;;;;;;;2.38;0.50;;;4.40;99.90;;;;;;5016851;28;20541;-61
2021/04/05 05:32:35;;;;;;;3.05;1.58;;;4.50;99.90;;;;;;5016681;28;20575;-62
2021/04/05 05:35:01;;;;;;;2.60;1.00;;;4.50;99.90;;;;;;5016501;28;20287;-62
2021/04/05 05:37:27;;;;;;;3.92;1.35;;;4.40;99.90;;;;;;5016665;28;20255;-61
2021/04/05 05:39:53;;;;;;;3.47;0.97;;;4.50;99.90;;;;;;5016634;28;20709;-62
2021/04/05 05:42:53;;;;;;;2.97;1.23;;;4.40;99.90;;;;;;5016572;28;20203;-62
2021/04/05 05:45:25;;;;;;;2.28;1.13;;;4.30;99.90;;;;;;4997182;28;20195;-61
2021/04/05 05:48:28;;;;;;;2.65;1.40;;;4.30;99.90;;;;;;5016573;28;20184;-61
2021/04/05 05:51:11;;;;;;;6.38;2.40;;;4.30;99.90;;;;;;5016324;28;20206;-61
2021/04/05 05:54:11;;;;;;;5.07;1.85;;;4.30;99.90;;;;;;5016388;28;20198;-61
2021/04/05 05:56:47;;;;;;;3.17;0.70;;;4.30;99.90;;;;;;5016296;28;20262;-59
2021/04/05 05:59:24;;;;;;;5.75;1.30;;;4.20;99.90;;;;;;5016390;28;20262;-59
2021/04/05 06:02:05;;;;;;;7.05;1.30;;;4.20;99.90;;;;;;5016389;28;20193;-60
2021/04/05 06:04:57;;;;;;;2.97;0.90;;;4.30;99.90;;;;;;5015979;28;20187;-59
2021/04/05 06:07:34;;;;;;;2.75;1.08;;;4.10;99.90;;;;;;5016247;28;20215;-59
2021/04/05 06:10:24;;;;;;;2.13;1.10;;;3.90;99.90;;;;;;5016076;28;20208;-61
2021/04/05 06:13:08;;;;;;;2.35;0.60;;;3.60;99.90;;;;;;5015254;28;20179;-59
2021/04/05 06:15:56;;;;;;;2.47;0.80;;;3.40;99.90;;;;;;5015953;28;20580;-59
2021/04/05 06:19:19;;;;;;;6.80;1.02;;;3.40;99.90;;;;;;5031838;28;20183;-59
2021/04/05 06:21:58;;;;;;;3.67;0.98;;;3.30;99.90;;;;;;4955742;29;20251;-59
2021/04/05 06:24:50;;;;;;;2.10;1.10;;;3.30;99.90;;;;;;4955466;29;20204;-59
2021/04/05 06:27:41;;;;;;;2.40;0.70;;;3.30;99.90;;;;;;5007361;28;20231;-59
2021/04/05 06:30:25;;;;;;;4.15;1.05;;;3.40;99.90;;;;;;5015734;28;20198;-59
2021/04/05 06:33:22;;;;;;;5.82;1.20;;;3.40;99.90;;;;;;5015922;28;20245;-59
2021/04/05 06:36:06;;;;;;;1.67;1.02;;;3.50;99.90;;;;;;5015811;28;20230;-59
2021/04/05 06:38:56;;;;;;;2.45;0.65;;;3.50;99.90;;;;;;5031130;28;20198;-61
2021/04/05 06:41:37;;;;;;;4.00;0.90;;;3.50;99.90;;;;;;5015398;28;20570;-59
2021/04/05 06:44:33;;;;;;;0.90;0.60;;;3.50;99.90;;;;;;5015444;28;20568;-59
2021/04/05 06:47:23;;;;;;;5.47;1.45;;;3.60;99.90;;;;;;5015852;28;20485;-61
2021/04/05 06:50:19;;;;;;;2.60;1.10;;;3.50;99.90;;;;;;5015451;28;20801;-61
2021/04/05 06:53:03;;;;;;;1.23;0.90;;;3.40;99.90;;;;;;5015660;28;20586;-59
2021/04/05 06:55:31;;;;;;;2.65;1.15;;;3.30;99.90;;;;;;5015505;28;20258;-59
2021/04/05 06:58:16;;;;;;;1.63;1.00;;;3.10;99.90;;;;;;5015388;28;20183;-59
2021/04/05 07:01:02;;;;;;;1.00;0.50;;;2.80;99.90;;;;;;5015201;28;20313;-59
2021/04/05 07:03:56;;;;;;;5.57;1.00;;;2.90;99.90;;;;;;5014906;28;20186;-59
2021/04/05 07:06:43;;;;;;;1.10;0.90;;;2.90;99.90;;;;;;5015046;28;20187;-59
2021/04/05 07:09:23;;;;;;;1.20;0.70;;;3.10;99.90;;;;;;5014994;28;20186;-60
2021/04/05 07:12:33;;;;;;;3.40;0.70;;;3.20;99.90;;;;;;5015122;28;20642;-59
2021/04/05 07:15:25;;;;;;;2.65;0.90;;;3.30;99.90;;;;;;5014737;28;20177;-59
2021/04/05 07:18:13;;;;;;;4.15;1.10;;;3.40;99.90;;;;;;5014836;28;20301;-60
2021/04/05 07:21:11;;;;;;;1.58;0.70;;;3.60;99.90;;;;;;5015151;28;20183;-60
2021/04/05 07:23:50;;;;;;;6.80;1.50;;;3.90;99.90;;;;;;5014946;28;20183;-59
2021/04/05 07:26:41;;;;;;;5.35;1.58;;;3.90;99.90;;;;;;5030281;28;20305;-59
2021/04/05 07:29:20;;;;;;;3.70;1.35;;;4.10;99.90;;;;;;5014583;28;20178;-60
2021/04/05 07:31:53;;;;;;;4.22;1.25;;;4.10;99.90;;;;;;5014680;28;20183;-59
2021/04/05 07:34:22;;;;;;;5.30;1.17;;;4.10;99.90;;;;;;5014270;28;20167;-60
2021/04/05 07:36:52;;;;;;;5.97;1.20;;;4.20;99.90;;;;;;5014456;28;20175;-60
2021/04/05 07:39:22;;;;;;;1.70;1.15;;;4.40;99.90;;;;;;5014512;28;20203;-61
2021/04/05 07:42:11;;;;;;;5.82;1.20;;;4.40;99.90;;;;;;5015469;28;20186;-61
2021/04/05 07:44:55;;;;;;;6.20;1.25;;;4.30;1.00;;;;;;5015072;28;20182;-61
2021/04/05 07:47:35;;;;;;;6.68;1.63;;;4.40;1.00;;;;;;5015128;28;20190;-60
2021/04/05 07:50:10;;;;;;;4.25;1.52;;;4.70;1.00;;;;;;5014260;28;20215;-61
2021/04/05 07:52:46;;;;;;;3.13;0.73;;;4.70;1.00;;;;;;5014304;28;20179;-61
2021/04/05 07:55:13;;;;;;;4.43;1.27;;;3.80;1.00;;;;;;5029332;28;20281;-62
2021/04/05 07:58:10;;;;;;;6.15;1.63;;;3.60;1.00;;;;;;5007425;28;20640;-62
2021/04/05 08:01:23;;;;;;;6.18;1.13;;;3.50;1.00;;;;;;5017213;28;20266;-62
2021/04/05 08:03:54;;;;;;;1.35;0.80;;;3.50;99.90;;;;;;4949089;28;20189;-62
2021/04/05 08:06:25;;;;;;;2.88;1.00;;;3.60;99.90;;;;;;4994225;28;20188;-62
2021/04/05 08:09:00;;;;;;;2.40;0.93;;;3.90;99.90;;;;;;4994331;28;20212;-63
2021/04/05 08:11:42;;;;;;;1.65;0.88;;;4.00;99.90;;;;;;4994750;28;20602;-62
2021/04/05 08:14:35;;;;;;;2.50;1.02;;;4.10;99.90;;;;;;4994184;28;20221;-62
2021/04/05 08:17:31;;;;;;;5.60;1.52;;;4.30;99.90;;;;;;4994777;28;20188;-63
2021/04/05 08:20:05;;;;;;;3.42;2.15;;;4.80;99.90;;;;;;4995762;28;20186;-64
2021/04/05 08:22:42;;;;;;;3.13;1.30;;;4.80;1.00;;;;;;4994703;28;20192;-61
2021/04/05 08:25:13;;;;;;;7.47;2.13;;;4.90;99.90;;;;;;4994323;28;20215;-62
2021/04/05 08:27:48;;;;;;;1.42;0.73;;;4.40;21.90;;;;;;4994628;28;20182;-62
2021/04/05 08:30:23;;;;;;;4.72;1.08;;;4.00;99.90;;;;;;4994496;28;20217;-63
2021/04/05 08:33:11;;;;;;;4.18;0.90;;;3.50;1.00;;;;;;4994333;28;20624;-60
2021/04/05 08:35:45;;;;;;;1.42;0.68;;;3.70;1.00;;;;;;4993748;28;20284;-61
2021/04/05 08:38:23;;;;;;;0.40;0.25;;;3.90;99.90;;;;;;4994204;28;20208;-61
2021/04/05 08:41:10;;;;;;;0.40;0.40;;;3.50;3.80;;;;;;4994227;28;20605;-62
2021/04/05 08:44:21;;;;;;;1.95;0.50;;;3.50;99.90;;;;;;4993889;28;20203;-60
2021/04/05 08:46:48;;;;;;;0.90;0.60;;;3.30;99.90;;;;;;4953580;28;20190;-61
2021/04/05 08:49:23;;;;;;;2.03;0.60;;;3.10;1.00;;;;;;4953506;28;20181;-58
2021/04/05 08:51:55;;;;;;;5.65;0.65;;;3.00;1.00;;;;;;4977164;28;20275;-60
2021/04/05 08:54:26;;;;;;;0.73;0.52;;;2.90;1.00;;;;;;4993766;28;20181;-60
2021/04/05 08:57:04;;;;;;;3.25;0.90;;;2.80;1.00;;;;;;4993979;28;20191;-59
2021/04/05 08:59:42;;;;;;;0.85;0.55;;;2.90;1.00;;;;;;4994095;28;20181;-60
2021/04/05 09:02:32;;;;;;;0.60;0.40;;;2.70;1.00;;;;;;4993923;28;20185;-60
2021/04/05 09:04:58;;;;;;;0.70;0.40;;;3.00;1.00;;;;;;4994032;28;20559;-60
2021/04/05 09:07:51;;;;;;;1.08;0.68;;;2.80;1.00;;;;;;4993891;28;20175;-61
2021/04/05 09:10:24;;;;;;;2.25;0.60;;;2.20;1.00;;;;;;4993978;28;20215;-62
2021/04/05 09:12:49;;;;;;;1.40;1.27;;;1.50;41.60;;;;;;4993885;28;20258;-58
2021/04/05 09:15:27;;;;;;;2.07;1.30;;;1.60;43.30;;;;;;4993571;28;20560;-63
2021/04/05 09:18:14;;;;;;;8.18;0.75;;;1.70;1.00;;;;;;4993700;28;20175;-61
2021/04/05 09:21:20;;;;;;;2.85;0.60;;;2.10;99.90;;;;;;4994313;28;20514;-61
2021/04/05 09:23:55;;;;;;;6.00;1.73;;;2.20;1.00;;;;;;4993486;28;20175;-61
2021/04/05 09:26:42;;;;;;;15.10;0.77;;;2.60;1.00;;;;;;4993703;28;20180;-63
2021/04/05 09:29:37;;;;;;;1.67;0.73;;;2.70;99.90;;;;;;4992726;28;20254;-63
2021/04/05 09:32:26;;;;;;;6.50;1.77;;;3.10;1.00;;;;;;4993737;28;20176;-60
2021/04/05 09:35:29;;;;;;;2.20;0.65;;;3.00;99.90;;;;;;4993397;28;20199;-61
2021/04/05 09:38:16;;;;;;;3.70;1.90;;;2.80;99.90;;;;;;4992383;28;20218;-60
2021/04/05 09:40:47;;;;;;;1.88;0.95;;;2.90;1.00;;;;;;4993734;28;20239;-62
2021/04/05 09:43:31;;;;;;;2.15;0.70;;;2.60;1.00;;;;;;4993233;28;20521;-62
2021/04/05 09:46:31;;;;;;;1.42;1.10;;;2.70;99.90;;;;;;4993437;28;20176;-63
2021/04/05 09:49:20;;;;;;;3.33;1.48;;;2.60;1.00;;;;;;4996293;28;20271;-63
2021/04/05 09:51:49;;;;;;;8.57;1.50;;;3.20;1.00;;;;;;4997084;28;20195;-60
2021/04/05 09:54:29;;;;;;;1.88;1.02;;;3.20;99.90;;;;;;4996227;28;20176;-61
2021/04/05 09:56:59;;;;;;;4.03;1.95;;;3.30;45.00;;;;;;4996966;28;20176;-63
2021/04/05 09:59:48;;;;;;;4.80;1.55;;;3.20;99.90;;;;;;4997043;28;20336;-64
2021/04/05 10:02:15;;;;;;;13.90;1.20;;;3.90;1.00;;;;;;4996550;28;20179;-64
2021/04/05 10:04:44;;;;;;;4.22;1.25;;;3.60;21.70;;;;;;4996567;28;20195;-60
2021/04/05 10:07:12;;;;;;;3.30;1.15;;;3.60;85.70;;;;;;4996702;28;20263;-60
2021/04/05 10:09:38;;;;;;;6.88;1.58;;;3.00;99.90;;;;;;4996580;28;20208;-60
2021/04/05 10:12:06;;;;;;;8.48;1.60;;;3.20;1.00;;;;;;4996559;28;20486;-60
2021/04/05 10:14:38;;;;;;;3.50;1.48;;;3.40;1.00;;;;;;4996323;28;20191;-60
2021/04/05 10:17:04;;;;;;;1.77;1.25;;;3.50;1.00;;;;;;4996528;28;20189;-60
2021/04/05 10:19:36;;;;;;;1.20;0.75;;;3.70;1.00;;;;;;4995651;28;20644;-63
2021/04/05 10:22:10;;;;;;;2.35;0.80;;;3.80;1.00;;;;;;4996872;28;20207;-63
2021/04/05 10:24:42;;;;;;;1.20;0.77;;;3.90;1.00;;;;;;4996279;28;20193;-62
2021/04/05 10:27:11;;;;;;;1.65;0.90;;;4.00;1.00;;;;;;4996706;28;20185;-62
2021/04/05 10:29:41;;;;;;;3.97;0.90;;;3.80;1.00;;;;;;4996372;28;20203;-62
2021/04/05 10:32:09;;;;;;;7.20;1.15;;;3.60;1.00;;;;;;4996626;28;20181;-62
2021/04/05 10:34:36;;;;;;;3.17;0.95;;;3.70;1.00;;;;;;4996792;28;20533;-61
2021/04/05 10:37:10;;;;;;;6.90;1.23;;;4.00;1.00;;;;;;4996559;28;20216;-61
2021/04/05 10:39:37;;;;;;;5.20;1.52;;;4.20;1.00;;;;;;4996509;28;20208;-60
2021/04/05 10:42:13;;;;;;;2.83;1.23;;;4.20;1.00;;;;;;5013552;28;20199;-60
2021/04/05 10:44:45;;;;;;;2.92;1.15;;;4.20;1.00;;;;;;5026256;28;20191;-60
2021/04/05 10:47:17;;;;;;;0.75;0.43;;;4.10;1.00;;;;;;5024193;28;20222;-64
2021/04/05 10:49:46;;;;;;;2.58;1.05;;;3.90;1.00;;;;;;5018559;28;20220;-66
2021/04/05 10:52:14;;;;;;;0.70;0.50;;;4.20;1.00;;;;;;5035804;28;20267;-66
2021/04/05 10:54:42;;;;;;;3.20;0.80;;;4.80;1.00;;;;;;5029140;28;20189;-66
2021/04/05 10:57:11;;;;;;;1.98;0.60;;;5.00;1.00;;;;;;5016340;28;20177;-64
2021/04/05 10:59:51;;;;;;;4.22;0.95;;;4.90;1.00;;;;;;5015674;28;20229;-62
2021/04/05 11:02:31;;;;;;;3.28;0.70;;;4.70;1.00;;;;;;5016276;28;20176;-62
2021/04/05 11:05:03;;;;;;;3.80;0.63;;;4.00;1.00;;;;;;4995627;28;20643;-62
2021/04/05 11:07:30;;;;;;;3.90;0.93;;;3.80;1.00;;;;;;4995442;28;20251;-61
2021/04/05 11:10:00;;;;;;;7.80;1.92;;;4.20;1.00;;;;;;4996188;28;20219;-66
2021/04/05 11:12:35;;;;;;;4.20;1.45;;;4.60;1.00;;;;;;4996040;28;20190;-69
2021/04/05 11:15:04;;;;;;;1.30;0.80;;;4.60;1.00;;;;;;4994655;28;20224;-66
2021/04/05 11:17:31;;;;;;;3.58;1.00;;;4.10;1.00;;;;;;4994978;28;20272;-63
2021/04/05 11:19:58;;;;;;;1.50;0.55;;;4.30;1.00;;;;;;5004712;28;20273;-63
2021/04/05 11:22:26;;;;;;;7.53;1.23;;;4.40;1.00;;;;;;5036322;28;20182;-67
2021/04/05 11:25:02;;;;;;;2.75;0.65;;;4.40;1.00;;;;;;5036496;28;20612;-65
2021/04/05 11:27:29;;;;;;;4.03;1.35;;;4.80;1.00;;;;;;5035872;28;20175;-65
2021/04/05 11:29:57;;;;;;;2.42;0.60;;;5.00;1.00;;;;;;5035922;28;20207;-59
2021/04/05 11:32:27;;;;;;;2.15;0.57;;;5.10;1.00;;;;;;5018435;28;20272;-64
2021/04/05 11:34:56;;;;;;;4.95;1.30;;;4.40;1.00;;;;;;5014691;28;20610;-63
2021/04/05 11:37:27;;;;;;;0.82;0.70;;;4.60;1.00;;;;;;5016188;28;20184;-66
2021/04/05 11:40:01;;;;;;;3.40;1.20;;;4.20;1.00;;;;;;5016029;28;20188;-64
2021/04/05 11:42:34;;;;;;;3.40;0.80;;;3.80;1.00;;;;;;5016331;28;20185;-60
2021/04/05 11:45:02;;;;;;;2.67;0.65;;;3.70;1.00;;;;;;5016457;28;20234;-65
2021/04/05 11:47:34;;;;;;;4.70;1.00;;;3.80;1.00;;;;;;5016680;28;20202;-67
2021/04/05 11:50:09;;;;;;;4.20;1.00;;;3.90;1.00;;;;;;5019974;28;20714;-66
2021/04/05 11:53:05;;;;;;;2.08;0.70;;;4.20;1.00;;;;;;5020399;28;20241;-66
2021/04/05 11:55:35;;;;;;;1.13;0.52;;;4.50;1.00;;;;;;4999673;28;20200;-67
2021/04/05 11:58:11;;;;;;;3.70;1.42;;;4.60;1.00;;;;;;4999138;28;20170;-66
2021/04/05 12:00:55;;;;;;;3.03;1.10;;;5.00;1.00;;;;;;4998510;28;20329;-62
2021/04/05 12:03:47;;;;;;;2.92;1.17;;;4.80;1.00;;;;;;4998671;28;20185;-64
2021/04/05 12:06:27;;;;;;;1.52;0.82;;;3.60;4.70;;;;;;4999431;28;20204;-61
2021/04/05 12:08:58;;;;;;;2.15;0.52;;;3.30;1.00;;;;;;4997496;28;20246;-66
2021/04/05 12:11:28;;;;;;;4.70;0.70;;;2.90;99.90;;;;;;4999778;28;20664;-65
2021/04/05 12:14:06;;;;;;;7.82;1.05;;;3.30;40.40;;;;;;4999596;28;20179;-63
2021/04/05 12:16:32;;;;;;;2.78;0.85;;;3.80;99.90;;;;;;4997776;28;20662;-64
2021/04/05 12:18:59;;;;;;;5.55;0.90;;;4.50;99.90;;;;;;5014709;28;20181;-66
2021/04/05 12:21:27;;;;;;;4.32;0.85;;;4.70;94.00;;;;;;4998987;28;20184;-65
2021/04/05 12:23:59;;;;;;;4.32;0.90;;;3.30;99.90;;;;;;4998420;28;20183;-63
2021/04/05 12:26:30;;;;;;;1.85;0.57;;;2.40;99.90;;;;;;4998249;28;20207;-65
2021/04/05 12:29:05;;;;;;;4.50;1.17;;;2.50;33.80;;;;;;5013499;28;20187;-66
2021/04/05 12:31:32;;;;;;;6.03;1.20;;;2.50;1.00;;;;;;4998770;28;20622;-66
2021/04/05 12:34:12;;;;;;;6.43;1.77;;;2.60;1.00;;;;;;5000322;28;20171;-65
2021/04/05 12:36:40;;;;;;;4.15;1.70;;;2.80;58.40;;;;;;4996948;28;20179;-65
2021/04/05 12:39:09;;;;;;;1.35;0.80;;;3.00;99.90;;;;;;4998384;28;20226;-61
2021/04/05 12:41:37;;;;;;;2.88;1.30;;;3.30;69.10;;;;;;5001968;28;20173;-65
2021/04/05 12:44:06;;;;;;;6.68;1.80;;;3.60;1.00;;;;;;4998229;28;20180;-65
2021/04/05 12:46:34;;;;;;;3.30;1.00;;;4.10;99.90;;;;;;4997612;28;20189;-67
2021/04/05 12:49:00;;;;;;;0.80;0.60;;;4.10;1.00;;;;;;4995337;28;20627;-60
2021/04/05 12:51:28;;;;;;;2.05;0.45;;;3.90;99.90;;;;;;4995924;28;20219;-61
2021/04/05 12:54:00;;;;;;;2.40;0.52;;;3.80;99.90;;;;;;5001106;28;20235;-58
2021/04/05 12:56:27;;;;;;;0.95;0.68;;;4.20;79.50;;;;;;5036506;28;20190;-59
2021/04/05 12:58:54;;;;;;;2.00;0.57;;;4.20;4.10;;;;;;5035861;28;20195;-60
2021/04/05 13:01:32;;;;;;;3.38;1.38;;;4.30;68.90;;;;;;5035807;28;20523;-62
2021/04/05 13:04:01;;;;;;;1.17;1.00;;;4.40;99.90;;;;;;5035115;28;20604;-63
2021/04/05 13:06:40;;;;;;;5.70;1.00;;;4.40;99.90;;;;;;5033440;28;20219;-60
2021/04/05 13:09:24;;;;;;;2.15;1.70;;;4.70;99.90;;;;;;5035389;28;20165;-60
2021/04/05 13:11:56;;;;;;;5.53;0.45;;;5.20;19.60;;;;;;5033575;28;20572;-66
2021/04/05 13:14:27;;;;;;;1.27;0.63;;;4.60;50.10;;;;;;5033810;28;20176;-64
2021/04/05 13:17:20;;;;;;;4.40;0.90;;;4.90;46.40;;;;;;5035085;28;20165;-64
2021/04/05 13:19:54;;;;;;;2.53;0.75;;;4.80;47.50;;;;;;5018874;28;20221;-66
2021/04/05 13:22:24;;;;;;;1.83;0.63;;;4.40;99.90;;;;;;5017255;28;20186;-64
2021/04/05 13:24:58;;;;;;;0.60;0.50;;;3.70;99.90;;;;;;5016519;28;20277;-61
2021/04/05 13:27:26;;;;;;;0.82;0.82;;;3.10;99.90;;;;;;5026221;28;20496;-66